createdAt,value
2023-05-04T00:01:02.548Z,21.90
2023-05-04T00:03:30.606Z,21.00
2023-05-04T00:05:58.757Z,23.10
2023-05-04T00:08:26.624Z,22.90
2023-05-04T00:10:55.895Z,21.60
2023-05-04T00:13:24.545Z,20.50
2023-05-04T00:15:52.706Z,20.00
2023-05-04T00:18:20.671Z,22.00
2023-05-04T00:20:48.604Z,16.70
2023-05-04T00:23:16.550Z,24.20
2023-05-04T00:25:44.495Z,20.20
2023-05-04T00:28:12.559Z,21.30
2023-05-04T00:30:40.527Z,16.90
2023-05-04T00:33:08.573Z,19.20
2023-05-04T00:35:37.072Z,21.60
2023-05-04T00:38:05.631Z,19.90
2023-05-04T00:40:35.308Z,23.10
2023-05-04T00:43:03.504Z,20.30
2023-05-04T00:45:32.182Z,18.30
2023-05-04T00:48:00.842Z,18.70
2023-05-04T00:50:29.229Z,19.20
2023-05-04T00:53:01.498Z,17.60
2023-05-04T00:55:29.578Z,20.70
2023-05-04T00:57:57.599Z,20.30
2023-05-04T01:00:25.895Z,18.00
2023-05-04T01:02:53.914Z,19.10
2023-05-04T01:05:27.239Z,20.60
2023-05-04T01:08:08.588Z,15.70
2023-05-04T01:10:36.608Z,17.00
2023-05-04T01:13:08.695Z,17.90
2023-05-04T01:15:37.257Z,21.80
2023-05-04T01:18:05.866Z,19.90
2023-05-04T01:20:34.977Z,15.40
2023-05-04T01:23:04.048Z,19.70
2023-05-04T01:25:36.262Z,19.50
2023-05-04T01:28:10.315Z,19.40
2023-05-04T01:30:44.900Z,21.70
2023-05-04T01:33:14.038Z,21.90
2023-05-04T01:35:42.597Z,17.30
2023-05-04T01:38:10.647Z,18.60
2023-05-04T01:40:40.932Z,29.00
2023-05-04T01:43:08.822Z,27.70
2023-05-04T01:45:36.784Z,21.10
2023-05-04T01:48:05.176Z,25.10
2023-05-04T01:50:33.346Z,20.50
2023-05-04T01:53:01.234Z,18.30
2023-05-04T01:55:29.161Z,23.70
2023-05-04T01:57:57.138Z,19.90
2023-05-04T02:00:25.221Z,21.10
2023-05-04T02:02:53.210Z,24.70
2023-05-04T02:05:21.377Z,26.60
2023-05-04T02:07:49.752Z,21.50
2023-05-04T02:10:17.722Z,27.00
2023-05-04T02:12:46.448Z,22.90
2023-05-04T02:15:14.596Z,22.10
2023-05-04T02:17:42.532Z,22.50
2023-05-04T02:20:10.864Z,20.70
2023-05-04T02:22:39.364Z,19.30
2023-05-04T02:25:08.155Z,34.30
2023-05-04T02:27:38.075Z,32.70
2023-05-04T02:30:07.532Z,22.50
2023-05-04T02:32:36.487Z,30.30
2023-05-04T02:35:05.219Z,25.60
2023-05-04T02:37:33.145Z,23.20
2023-05-04T02:40:01.061Z,23.30
2023-05-04T02:42:30.556Z,21.70
2023-05-04T02:44:58.447Z,18.10
2023-05-04T02:47:26.451Z,18.10
2023-05-04T02:49:54.642Z,20.10
2023-05-04T02:52:22.530Z,19.40
2023-05-04T02:54:52.946Z,20.20
2023-05-04T02:57:21.198Z,19.70
2023-05-04T02:59:49.076Z,24.90
2023-05-04T03:02:16.985Z,24.30
2023-05-04T03:04:44.913Z,19.30
2023-05-04T03:07:13.593Z,22.70
2023-05-04T03:09:41.516Z,25.50
2023-05-04T03:12:09.425Z,20.80
2023-05-04T03:14:37.324Z,22.50
2023-05-04T03:17:05.332Z,22.40
2023-05-04T03:19:33.711Z,23.50
2023-05-04T03:22:01.666Z,23.40
2023-05-04T03:24:29.605Z,20.30
2023-05-04T03:26:57.722Z,23.10
2023-05-04T03:29:26.381Z,19.40
2023-05-04T03:31:54.846Z,25.60
2023-05-04T03:34:22.884Z,20.20
2023-05-04T03:36:54.085Z,18.30
2023-05-04T03:39:22.045Z,20.20
2023-05-04T03:41:50.031Z,19.10
2023-05-04T03:44:18.830Z,22.50
2023-05-04T03:46:47.033Z,20.60
2023-05-04T03:49:15.252Z,20.80
2023-05-04T03:51:43.681Z,19.10
2023-05-04T03:54:12.343Z,19.30
2023-05-04T03:56:40.382Z,21.90
2023-05-04T03:59:09.592Z,17.60
2023-05-04T04:01:38.128Z,15.50
2023-05-04T04:04:06.162Z,19.70
2023-05-04T04:06:34.299Z,18.40
2023-05-04T04:09:02.223Z,17.80
2023-05-04T04:11:31.560Z,14.30
2023-05-04T04:13:59.580Z,17.10
2023-05-04T04:16:27.647Z,15.20
2023-05-04T04:18:55.770Z,17.60
2023-05-04T04:21:23.755Z,19.60
2023-05-04T04:23:51.678Z,13.60
2023-05-04T04:26:20.738Z,13.90
2023-05-04T04:28:51.043Z,13.20
2023-05-04T04:31:19.781Z,14.90
2023-05-04T04:33:50.417Z,13.50
2023-05-04T04:36:19.000Z,15.20
2023-05-04T04:38:47.675Z,14.30
2023-05-04T04:41:16.531Z,12.40
2023-05-04T04:43:44.606Z,15.10
2023-05-04T04:46:12.720Z,17.90
2023-05-04T04:48:40.702Z,18.20
2023-05-04T04:51:12.268Z,17.30
2023-05-04T04:53:40.497Z,25.10
2023-05-04T04:56:09.716Z,19.20
2023-05-04T04:58:37.720Z,26.50
2023-05-04T05:01:05.800Z,28.90
2023-05-04T05:03:33.975Z,25.50
2023-05-04T05:06:02.732Z,24.90
2023-05-04T05:08:32.934Z,24.80
2023-05-04T05:11:00.887Z,21.70
2023-05-04T05:13:28.785Z,25.90
2023-05-04T05:15:56.788Z,17.40
2023-05-04T05:18:24.821Z,19.20
2023-05-04T05:20:52.736Z,16.60
2023-05-04T05:23:20.821Z,16.80
2023-05-04T05:25:48.823Z,12.90
2023-05-04T05:28:17.535Z,9.80
2023-05-04T05:30:45.590Z,19.30
2023-05-04T05:33:14.005Z,26.40
2023-05-04T05:35:42.170Z,16.10
2023-05-04T05:38:10.247Z,18.40
2023-05-04T05:40:38.249Z,19.20
2023-05-04T05:43:06.648Z,26.10
2023-05-04T05:45:34.606Z,26.40
2023-05-04T05:48:02.691Z,20.30
2023-05-04T05:50:30.634Z,18.00
2023-05-04T05:52:58.485Z,21.30
2023-05-04T05:55:26.401Z,16.80
2023-05-04T05:57:54.313Z,14.10
2023-05-04T06:00:22.306Z,16.40
2023-05-04T06:02:51.200Z,16.30
2023-05-04T06:05:19.121Z,19.30
2023-05-04T06:07:47.105Z,15.20
2023-05-04T06:10:15.326Z,12.10
2023-05-04T06:12:43.278Z,10.30
2023-05-04T06:15:12.056Z,13.00
2023-05-04T06:17:40.305Z,12.60
2023-05-04T06:20:09.257Z,10.30
2023-05-04T06:22:37.363Z,8.80
2023-05-04T06:25:08.085Z,9.60
2023-05-04T06:27:36.771Z,12.10
2023-05-04T06:30:05.842Z,9.50
2023-05-04T06:32:34.561Z,10.80
2023-05-04T06:35:02.827Z,10.00
2023-05-04T06:37:31.137Z,8.20
2023-05-04T06:39:59.051Z,9.50
2023-05-04T06:42:31.702Z,9.90
2023-05-04T06:44:59.710Z,10.00
2023-05-04T06:47:27.759Z,8.30
2023-05-04T06:49:55.647Z,8.40
2023-05-04T06:52:23.663Z,9.10
2023-05-04T06:54:51.706Z,9.50
2023-05-04T06:57:19.598Z,6.40
2023-05-04T06:59:47.430Z,6.70
2023-05-04T07:02:16.865Z,6.80
2023-05-04T07:04:44.843Z,10.80
2023-05-04T07:07:12.729Z,6.60
2023-05-04T07:09:41.854Z,8.20
2023-05-04T07:12:09.865Z,9.30
2023-05-04T07:14:38.048Z,8.70
2023-05-04T07:17:05.981Z,9.20
2023-05-04T07:19:33.865Z,7.20
2023-05-04T07:22:01.799Z,8.20
2023-05-04T07:24:30.615Z,7.30
2023-05-04T07:26:58.467Z,6.70
2023-05-04T07:29:26.494Z,6.40
2023-05-04T07:31:54.419Z,9.50
2023-05-04T07:34:30.568Z,10.50
2023-05-04T07:39:36.886Z,8.20
2023-05-04T07:42:05.820Z,7.10
2023-05-04T07:44:33.977Z,6.20
2023-05-04T07:47:02.042Z,6.10
2023-05-04T07:49:30.027Z,5.80
2023-05-04T07:51:58.367Z,5.60
2023-05-04T07:54:26.386Z,5.20
2023-05-04T07:56:54.319Z,6.50
2023-05-04T07:59:22.215Z,6.60
2023-05-04T08:01:50.195Z,4.50
2023-05-04T08:04:18.107Z,4.00
2023-05-04T08:06:46.577Z,4.00
2023-05-04T08:09:14.586Z,3.70
2023-05-04T08:11:42.659Z,3.50
2023-05-04T08:14:10.730Z,5.70
2023-05-04T08:16:39.937Z,4.50
2023-05-04T08:19:08.138Z,5.20
2023-05-04T08:21:36.142Z,7.30
2023-05-04T08:24:04.371Z,3.60
2023-05-04T08:26:32.307Z,4.50
2023-05-04T08:29:08.397Z,3.00
2023-05-04T08:31:37.242Z,4.40
2023-05-04T08:34:05.630Z,4.50
2023-05-04T08:36:33.583Z,5.10
2023-05-04T08:39:01.570Z,2.50
2023-05-04T08:41:30.654Z,3.30
2023-05-04T08:43:59.714Z,3.30
2023-05-04T08:46:31.508Z,3.40
2023-05-04T08:48:59.623Z,3.20
2023-05-04T08:51:28.580Z,3.90
2023-05-04T08:53:57.629Z,5.40
2023-05-04T08:56:26.062Z,3.30
2023-05-04T08:58:58.054Z,5.10
2023-05-04T09:01:26.556Z,3.70
2023-05-04T09:03:54.836Z,2.80
2023-05-04T09:06:24.238Z,3.60
2023-05-04T09:08:52.168Z,5.60
2023-05-04T09:11:20.187Z,2.80
2023-05-04T09:13:48.252Z,3.40
2023-05-04T09:16:16.419Z,4.90
2023-05-04T09:18:45.176Z,4.00
2023-05-04T09:21:13.353Z,6.20
2023-05-04T09:23:49.683Z,4.00
2023-05-04T09:26:30.861Z,3.40
2023-05-04T09:29:15.514Z,4.50
2023-05-04T09:31:44.428Z,3.40
2023-05-04T09:34:13.993Z,5.40
2023-05-04T09:36:44.883Z,6.70
2023-05-04T09:39:14.232Z,5.00
2023-05-04T09:41:43.453Z,2.50
2023-05-04T09:44:18.953Z,4.20
2023-05-04T09:46:58.515Z,5.30
2023-05-04T09:49:34.734Z,4.40
2023-05-04T09:52:05.263Z,5.70
2023-05-04T09:54:35.394Z,3.40
2023-05-04T09:57:14.172Z,4.00
2023-05-04T09:59:42.380Z,2.70
2023-05-04T10:02:22.724Z,4.60
2023-05-04T10:04:52.253Z,4.10
2023-05-04T10:07:21.071Z,2.70
2023-05-04T10:09:50.343Z,6.00
2023-05-04T10:12:18.553Z,5.00
2023-05-04T10:14:47.277Z,3.60
2023-05-04T10:17:28.258Z,3.90
2023-05-04T10:20:14.845Z,3.00
2023-05-04T10:22:52.017Z,2.90
2023-05-04T10:25:52.478Z,2.50
2023-05-04T10:28:53.792Z,4.00
2023-05-04T10:31:21.990Z,7.30
2023-05-04T10:33:50.094Z,5.70
2023-05-04T10:36:18.395Z,2.40
2023-05-04T10:38:46.492Z,2.60
2023-05-04T10:41:16.814Z,2.50
2023-05-04T10:43:53.503Z,3.30
2023-05-04T10:46:23.243Z,5.60
2023-05-04T10:48:51.646Z,3.20
2023-05-04T10:51:26.583Z,6.20
2023-05-04T10:54:01.351Z,6.80
2023-05-04T10:56:29.391Z,5.30
2023-05-04T10:59:08.091Z,3.00
2023-05-04T11:01:44.806Z,5.90
2023-05-04T11:04:22.726Z,6.70
2023-05-04T11:07:08.399Z,4.60
2023-05-04T11:09:39.065Z,2.70
2023-05-04T11:12:10.536Z,2.50
2023-05-04T11:14:42.717Z,5.00
2023-05-04T11:17:27.471Z,3.00
2023-05-04T11:19:56.705Z,5.70
2023-05-04T11:22:24.743Z,3.50
2023-05-04T11:24:54.349Z,3.30
2023-05-04T11:27:26.065Z,3.70
2023-05-04T11:30:01.714Z,3.50
2023-05-04T11:32:38.029Z,3.60
2023-05-04T11:35:15.112Z,3.30
2023-05-04T11:37:44.847Z,2.60
2023-05-04T11:40:18.260Z,4.30
2023-05-04T11:42:47.333Z,5.20
2023-05-04T11:45:19.826Z,5.10
2023-05-04T11:47:49.157Z,4.30
2023-05-04T11:50:20.805Z,3.20
2023-05-04T11:52:49.357Z,4.30
2023-05-04T11:55:28.348Z,4.10
2023-05-04T11:58:23.329Z,6.00
2023-05-04T12:00:56.109Z,3.10
2023-05-04T12:03:39.879Z,2.60
2023-05-04T12:06:16.525Z,3.80
2023-05-04T12:08:44.509Z,2.90
2023-05-04T12:11:26.152Z,2.70
2023-05-04T12:14:03.608Z,4.00
2023-05-04T12:16:31.721Z,5.80
2023-05-04T12:19:06.818Z,4.10
2023-05-04T12:21:36.186Z,3.20
2023-05-04T12:24:05.209Z,4.00
2023-05-04T12:26:33.398Z,4.20
2023-05-04T12:29:01.465Z,2.90
2023-05-04T12:31:30.417Z,3.80
2023-05-04T12:33:58.529Z,5.00
2023-05-04T12:36:26.996Z,4.80
2023-05-04T12:38:54.871Z,4.80
2023-05-04T12:41:23.375Z,4.10
2023-05-04T12:43:51.351Z,5.50
2023-05-04T12:46:21.607Z,4.40
2023-05-04T12:48:49.626Z,3.30
2023-05-04T12:51:17.597Z,4.70
2023-05-04T12:53:45.632Z,7.70
2023-05-04T12:56:13.998Z,7.90
2023-05-04T12:58:41.961Z,4.10
2023-05-04T13:01:10.080Z,3.50
2023-05-04T13:03:38.080Z,11.10
2023-05-04T13:06:06.435Z,9.30
2023-05-04T13:08:34.358Z,3.70
2023-05-04T13:11:02.314Z,4.10
2023-05-04T13:13:30.919Z,6.50
2023-05-04T13:15:59.056Z,4.40
2023-05-04T13:18:27.959Z,4.00
2023-05-04T13:20:56.860Z,4.30
2023-05-04T13:23:24.850Z,7.40
2023-05-04T13:25:52.898Z,3.50
2023-05-04T13:28:20.879Z,5.00
2023-05-04T13:30:48.849Z,2.90
2023-05-04T13:33:28.167Z,4.30
2023-05-04T13:35:58.896Z,3.60
2023-05-04T13:38:27.234Z,3.90
2023-05-04T13:40:56.204Z,5.30
2023-05-04T13:43:24.883Z,4.90
2023-05-04T13:45:52.873Z,4.30
2023-05-04T13:48:21.079Z,3.40
2023-05-04T13:50:49.008Z,4.70
2023-05-04T13:53:16.913Z,4.10
2023-05-04T13:55:44.930Z,5.60
2023-05-04T13:58:12.982Z,4.00
2023-05-04T14:00:41.248Z,3.20
2023-05-04T14:03:09.311Z,8.70
2023-05-04T14:05:37.270Z,2.90
2023-05-04T14:08:05.350Z,4.40
2023-05-04T14:10:33.763Z,4.10
2023-05-04T14:13:03.300Z,3.70
2023-05-04T14:15:32.108Z,4.90
2023-05-04T14:18:00.261Z,4.70
2023-05-04T14:20:28.293Z,3.60
2023-05-04T14:22:56.272Z,2.80
2023-05-04T14:25:24.198Z,5.50
2023-05-04T14:27:52.244Z,4.50
2023-05-04T14:30:20.230Z,6.20
2023-05-04T14:32:53.033Z,3.00
2023-05-04T14:35:21.082Z,3.80
2023-05-04T14:37:49.592Z,4.50
2023-05-04T14:40:17.750Z,4.20
2023-05-04T14:42:45.777Z,6.00
2023-05-04T14:45:13.803Z,4.80
2023-05-04T14:47:42.366Z,3.40
2023-05-04T14:50:11.038Z,6.30
2023-05-04T14:52:39.208Z,3.00
2023-05-04T14:55:07.889Z,3.60
2023-05-04T14:57:36.733Z,4.30
2023-05-04T15:00:08.512Z,5.50
2023-05-04T15:02:38.756Z,5.90
2023-05-04T15:05:07.565Z,4.30
2023-05-04T15:07:36.004Z,7.40
2023-05-04T15:10:04.445Z,5.30
2023-05-04T15:12:32.631Z,5.00
2023-05-04T15:15:01.315Z,5.20
2023-05-04T15:17:30.878Z,5.80
2023-05-04T15:20:01.483Z,4.40
2023-05-04T15:22:29.420Z,5.50
2023-05-04T15:24:57.416Z,5.50
2023-05-04T15:27:25.423Z,3.10
2023-05-04T15:29:53.330Z,4.90
2023-05-04T15:32:21.280Z,6.20
2023-05-04T15:34:57.446Z,4.30
2023-05-04T15:37:29.429Z,4.40
2023-05-04T15:39:58.226Z,3.70
2023-05-04T15:42:27.491Z,8.50
2023-05-04T15:44:55.412Z,3.30
2023-05-04T15:47:23.377Z,4.50
2023-05-04T15:49:52.446Z,5.30
2023-05-04T15:52:20.545Z,3.10
2023-05-04T15:54:48.449Z,9.20
2023-05-04T15:57:16.849Z,4.40
2023-05-04T15:59:47.615Z,3.30
2023-05-04T16:02:16.082Z,6.80
2023-05-04T16:04:44.161Z,4.60
2023-05-04T16:07:12.016Z,6.50
2023-05-04T16:09:39.994Z,4.70
2023-05-04T16:12:08.155Z,4.50
2023-05-04T16:14:36.213Z,7.20
2023-05-04T16:17:04.265Z,5.30
2023-05-04T16:19:32.303Z,5.10
2023-05-04T16:22:00.238Z,5.00
2023-05-04T16:45:14.865Z,6.60
2023-05-04T16:47:43.943Z,5.80
2023-05-04T16:50:13.307Z,10.10
2023-05-04T16:52:41.494Z,6.30
2023-05-04T16:55:12.113Z,5.90
2023-05-04T16:57:40.558Z,6.60
2023-05-04T17:00:09.416Z,6.40
2023-05-04T17:02:38.056Z,8.90
2023-05-04T17:05:10.625Z,6.60
2023-05-04T17:07:43.564Z,11.30
2023-05-04T17:10:12.669Z,8.50
2023-05-04T17:12:42.278Z,9.60
2023-05-04T17:15:11.197Z,8.00
2023-05-04T17:17:39.211Z,8.90
2023-05-04T17:20:09.287Z,7.60
2023-05-04T17:22:37.669Z,7.50
2023-05-04T17:25:06.072Z,9.50
2023-05-04T17:27:35.251Z,7.00
2023-05-04T17:30:04.248Z,5.60
2023-05-04T17:32:32.459Z,10.00
2023-05-04T17:35:08.419Z,7.60
2023-05-04T17:40:13.009Z,10.40
2023-05-04T17:42:41.054Z,10.50
2023-05-04T17:45:09.430Z,8.70
2023-05-04T17:47:37.496Z,7.60
2023-05-04T17:50:05.958Z,11.20
2023-05-04T17:52:34.249Z,10.00
2023-05-04T17:55:02.216Z,7.90
2023-05-04T17:57:30.283Z,13.00
2023-05-04T17:59:58.239Z,8.40
2023-05-04T18:02:26.420Z,7.60
2023-05-04T18:04:54.433Z,7.10
2023-05-04T18:07:22.491Z,10.30
2023-05-04T18:09:50.902Z,9.90
2023-05-04T18:12:18.972Z,9.40
2023-05-04T18:14:46.893Z,10.40
2023-05-04T18:17:15.140Z,33.50
2023-05-04T18:19:43.135Z,41.90
2023-05-04T18:22:11.200Z,39.00
2023-05-04T18:24:39.158Z,29.90
2023-05-04T18:27:07.084Z,23.40
2023-05-04T18:29:35.093Z,16.00
2023-05-04T18:32:08.002Z,22.00
2023-05-04T18:34:37.127Z,26.70
2023-05-04T18:37:05.254Z,27.00
2023-05-04T18:39:33.276Z,33.90
2023-05-04T18:42:01.925Z,37.00
2023-05-04T18:44:29.974Z,27.10
2023-05-04T18:46:59.377Z,33.70
2023-05-04T18:49:27.445Z,30.00
2023-05-04T18:51:55.449Z,30.20
2023-05-04T18:54:23.420Z,31.30
2023-05-04T18:56:51.344Z,25.80
2023-05-04T18:59:19.309Z,28.00
2023-05-04T19:01:50.210Z,26.40
2023-05-04T19:04:18.122Z,28.70
2023-05-04T19:06:47.703Z,34.20
2023-05-04T19:09:16.259Z,37.70
2023-05-04T19:11:44.816Z,32.50
2023-05-04T19:14:13.551Z,33.30
2023-05-04T19:16:41.676Z,28.50
2023-05-04T19:19:09.917Z,31.30
2023-05-04T19:21:38.052Z,34.60
2023-05-04T19:24:07.147Z,37.20
2023-05-04T19:26:35.092Z,34.40
2023-05-04T19:29:03.463Z,31.40
2023-05-04T19:31:31.461Z,32.70
2023-05-04T19:33:59.702Z,31.30
2023-05-04T19:36:27.724Z,33.10
2023-05-04T19:38:55.962Z,38.60
2023-05-04T19:41:23.981Z,29.10
2023-05-04T19:43:52.290Z,33.40
2023-05-04T19:46:20.772Z,31.70
2023-05-04T19:48:48.787Z,36.00
2023-05-04T19:51:17.870Z,30.20
2023-05-04T19:53:46.042Z,36.70
2023-05-04T19:56:14.105Z,31.00
2023-05-04T19:58:42.127Z,26.70
2023-05-04T20:01:10.759Z,29.90
2023-05-04T20:03:38.785Z,26.60
2023-05-04T20:06:07.386Z,27.10
2023-05-04T20:08:35.382Z,26.20
2023-05-04T20:11:03.359Z,26.50
2023-05-04T20:13:31.313Z,23.90
2023-05-04T20:15:59.289Z,26.20
2023-05-04T20:18:27.433Z,24.10
2023-05-04T20:20:56.359Z,22.10
2023-05-04T20:23:24.319Z,21.60
2023-05-04T20:25:52.307Z,27.00
2023-05-04T20:28:21.255Z,25.40
2023-05-04T20:30:50.131Z,20.10
2023-05-04T20:33:18.034Z,24.10
2023-05-04T20:35:46.042Z,21.80
2023-05-04T20:38:14.334Z,20.90
2023-05-04T20:40:42.238Z,24.40
2023-05-04T20:43:11.492Z,23.10
2023-05-04T20:45:39.447Z,29.70
2023-05-04T20:48:07.448Z,25.50
2023-05-04T20:50:35.486Z,22.60
2023-05-04T20:53:03.445Z,25.50
2023-05-04T20:55:31.504Z,29.30
2023-05-04T20:57:59.426Z,27.10
2023-05-04T21:00:27.430Z,25.40
2023-05-04T21:02:55.447Z,27.20
2023-05-04T21:05:23.549Z,26.70
2023-05-04T21:07:54.786Z,31.40
2023-05-04T21:10:22.809Z,24.30
2023-05-04T21:12:50.841Z,26.80
2023-05-04T21:15:18.920Z,25.10
2023-05-04T21:17:49.922Z,30.00
2023-05-04T21:20:18.070Z,45.70
2023-05-04T21:22:46.330Z,34.20
2023-05-04T21:25:14.389Z,32.60
2023-05-04T21:27:44.246Z,40.20
2023-05-04T21:30:12.636Z,39.60
2023-05-04T21:32:40.715Z,38.70
2023-05-04T21:35:08.976Z,36.70
2023-05-04T21:37:37.313Z,38.00
2023-05-04T21:40:06.258Z,37.10
2023-05-04T21:42:34.537Z,37.00
2023-05-04T21:45:02.442Z,34.10
2023-05-04T21:47:30.611Z,34.10
2023-05-04T21:49:58.544Z,34.50
2023-05-04T21:52:26.756Z,35.10
2023-05-04T21:54:54.720Z,33.10
2023-05-04T21:57:22.635Z,28.40
2023-05-04T21:59:50.606Z,34.40
2023-05-04T22:02:18.640Z,30.40
2023-05-04T22:04:46.594Z,31.20
2023-05-04T22:07:15.635Z,38.80
2023-05-04T22:09:43.748Z,44.10
2023-05-04T22:12:11.757Z,47.70
2023-05-04T22:14:42.206Z,43.20
2023-05-04T22:17:10.498Z,34.80
2023-05-04T22:19:38.586Z,37.30
2023-05-04T22:22:06.528Z,40.50
2023-05-04T22:24:34.491Z,35.60
2023-05-04T22:27:03.482Z,37.40
2023-05-04T22:29:34.748Z,36.00
2023-05-04T22:32:02.910Z,38.10
2023-05-04T22:34:30.993Z,41.20
2023-05-04T22:36:58.841Z,38.40
2023-05-04T22:39:26.849Z,40.50
2023-05-04T22:41:54.720Z,36.70
2023-05-04T22:44:22.827Z,38.00
2023-05-04T22:46:50.708Z,37.70
2023-05-04T22:49:18.737Z,38.00
2023-05-04T22:51:46.721Z,37.60
2023-05-04T22:54:14.796Z,39.40
2023-05-04T22:56:42.763Z,37.80
2023-05-04T22:59:10.742Z,36.40
2023-05-04T23:01:43.301Z,32.40
2023-05-04T23:04:11.651Z,39.60
2023-05-04T23:06:39.622Z,39.30
2023-05-04T23:09:07.777Z,60.70
2023-05-04T23:11:35.781Z,56.40
2023-05-04T23:14:03.811Z,45.00
2023-05-04T23:16:32.184Z,69.50
2023-05-04T23:19:00.286Z,61.80
2023-05-04T23:21:28.212Z,50.90
2023-05-04T23:23:56.284Z,46.80
2023-05-04T23:26:24.266Z,45.90
2023-05-04T23:28:52.226Z,47.10
2023-05-04T23:31:20.577Z,41.90
2023-05-04T23:33:48.670Z,37.70
2023-05-04T23:36:16.770Z,32.90
2023-05-04T23:38:44.692Z,33.80
2023-05-04T23:41:12.647Z,27.90
2023-05-04T23:43:40.659Z,24.90
2023-05-04T23:46:08.621Z,31.10
2023-05-04T23:48:36.594Z,30.90
2023-05-04T23:51:04.918Z,37.60
2023-05-04T23:53:36.758Z,30.80
2023-05-04T23:56:06.269Z,33.70
2023-05-04T23:58:35.150Z,29.70
